GFA509 OMDB-OBBI
Flight info
| Callsign | GFA509 |
|---|---|
| Flight time | 0h 50m |
| Altitude | 26000 |
| Route | NABIX P699 ORMID M556 ORDIG |
| Aircraft | A320/M-SDE3FGHIRWY/LB1 |
Departure
| Time | 2026-04-23 23:29 |
|---|---|
| Airport | Dubai International Airport (OMDB) |
Arrival
| Time | 2026-04-24 00:19 |
|---|---|
| Airport | Bahrain International Airport (OBBI) |
| Time | Latitude | Longitude | Altitude | Speed | Heading |
|---|---|---|---|---|---|
| 2026-04-23 23:00 | 25.25841 | 55.34567 | 21 ft | 0 kts | 211° |
| 2026-04-23 23:15 | 25.25848 | 55.34572 | 22 ft | 3 kts | 212° |
| 2026-04-23 23:16 | 25.25864 | 55.34583 | 22 ft | 3 kts | 212° |
| 2026-04-23 23:16 | 25.25882 | 55.34595 | 22 ft | 3 kts | 209° |
| 2026-04-23 23:16 | 25.25900 | 55.34605 | 22 ft | 3 kts | 199° |
| 2026-04-23 23:16 | 25.25919 | 55.34610 | 22 ft | 3 kts | 182° |
| 2026-04-23 23:17 | 25.25937 | 55.34608 | 25 ft | 3 kts | 148° |
| 2026-04-23 23:17 | 25.25947 | 55.34600 | 22 ft | 1 kts | 122° |
| 2026-04-23 23:17 | 25.25949 | 55.34596 | 22 ft | 0 kts | 122° |
| 2026-04-23 23:19 | 25.25936 | 55.34618 | 24 ft | 13 kts | 122° |
| 2026-04-23 23:19 | 25.25882 | 55.34715 | 21 ft | 14 kts | 122° |
| 2026-04-23 23:20 | 25.25834 | 55.34801 | 22 ft | 12 kts | 122° |
| 2026-04-23 23:20 | 25.25790 | 55.34878 | 22 ft | 11 kts | 122° |
| 2026-04-23 23:20 | 25.25753 | 55.34947 | 21 ft | 10 kts | 115° |
| 2026-04-23 23:20 | 25.25769 | 55.35007 | 22 ft | 8 kts | 38° |
| 2026-04-23 23:21 | 25.25823 | 55.35044 | 21 ft | 10 kts | 31° |
| 2026-04-23 23:21 | 25.25897 | 55.35093 | 21 ft | 14 kts | 31° |
| 2026-04-23 23:21 | 25.25984 | 55.35151 | 21 ft | 16 kts | 31° |
| 2026-04-23 23:21 | 25.26082 | 55.35217 | 22 ft | 16 kts | 32° |
| 2026-04-23 23:22 | 25.26134 | 55.35297 | 22 ft | 14 kts | 98° |
| 2026-04-23 23:22 | 25.26083 | 55.35390 | 22 ft | 14 kts | 122° |
| 2026-04-23 23:22 | 25.26030 | 55.35484 | 22 ft | 18 kts | 122° |
| 2026-04-23 23:22 | 25.25961 | 55.35605 | 22 ft | 19 kts | 122° |
| 2026-04-23 23:23 | 25.25890 | 55.35733 | 22 ft | 20 kts | 122° |
| 2026-04-23 23:23 | 25.25813 | 55.35870 | 22 ft | 22 kts | 121° |
| 2026-04-23 23:23 | 25.25730 | 55.36017 | 22 ft | 23 kts | 121° |
| 2026-04-23 23:23 | 25.25640 | 55.36176 | 23 ft | 25 kts | 122° |
| 2026-04-23 23:24 | 25.25545 | 55.36347 | 22 ft | 27 kts | 122° |
| 2026-04-23 23:24 | 25.25442 | 55.36528 | 22 ft | 28 kts | 122° |
| 2026-04-23 23:24 | 25.25336 | 55.36719 | 22 ft | 30 kts | 121° |
| 2026-04-23 23:24 | 25.25238 | 55.36892 | 22 ft | 20 kts | 121° |
| 2026-04-23 23:25 | 25.25160 | 55.37030 | 24 ft | 22 kts | 122° |
| 2026-04-23 23:25 | 25.25078 | 55.37177 | 23 ft | 23 kts | 122° |
| 2026-04-23 23:25 | 25.24990 | 55.37333 | 25 ft | 25 kts | 122° |
| 2026-04-23 23:25 | 25.24894 | 55.37503 | 23 ft | 27 kts | 121° |
| 2026-04-23 23:26 | 25.24796 | 55.37678 | 24 ft | 26 kts | 122° |
| 2026-04-23 23:26 | 25.24722 | 55.37809 | 23 ft | 16 kts | 122° |
| 2026-04-23 23:26 | 25.24677 | 55.37888 | 22 ft | 9 kts | 122° |
| 2026-04-23 23:26 | 25.24668 | 55.37945 | 23 ft | 7 kts | 74° |
| 2026-04-23 23:27 | 25.24695 | 55.37975 | 23 ft | 5 kts | 33° |
| 2026-04-23 23:27 | 25.24718 | 55.37991 | 24 ft | 7 kts | 33° |
| 2026-04-23 23:27 | 25.24788 | 55.38033 | 25 ft | 11 kts | 1° |
| 2026-04-23 23:27 | 25.24835 | 55.37974 | 25 ft | 6 kts | 298° |
| 2026-04-23 23:28 | 25.24842 | 55.37961 | 26 ft | 13 kts | 299° |
| 2026-04-23 23:28 | 25.25041 | 55.37605 | 27 ft | 91 kts | 301° |
| 2026-04-23 23:28 | 25.25487 | 55.36804 | 26 ft | 151 kts | 302° |
| 2026-04-23 23:28 | 25.26111 | 55.35714 | 332 ft | 175 kts | 302° |
| 2026-04-23 23:29 | 25.26820 | 55.34564 | 885 ft | 188 kts | 307° |
| 2026-04-23 23:29 | 25.27580 | 55.33346 | 1512 ft | 194 kts | 304° |
| 2026-04-23 23:29 | 25.28281 | 55.32055 | 2114 ft | 197 kts | 301° |
| 2026-04-23 23:29 | 25.28965 | 55.30742 | 2752 ft | 197 kts | 297° |
| 2026-04-23 23:30 | 25.29281 | 55.29295 | 3373 ft | 196 kts | 266° |
| 2026-04-23 23:30 | 25.28899 | 55.27839 | 3886 ft | 202 kts | 243° |
| 2026-04-23 23:30 | 25.28275 | 55.26440 | 4521 ft | 202 kts | 245° |
| 2026-04-23 23:30 | 25.27675 | 55.25046 | 5261 ft | 200 kts | 244° |
| 2026-04-23 23:31 | 25.27083 | 55.23656 | 5963 ft | 200 kts | 244° |
| 2026-04-23 23:31 | 25.26492 | 55.22264 | 6635 ft | 200 kts | 244° |
| 2026-04-23 23:31 | 25.25896 | 55.20859 | 7204 ft | 209 kts | 244° |
| 2026-04-23 23:31 | 25.25245 | 55.19331 | 7533 ft | 229 kts | 244° |
| 2026-04-23 23:32 | 25.24555 | 55.17714 | 8177 ft | 235 kts | 244° |
| 2026-04-23 23:32 | 25.23997 | 55.16029 | 8899 ft | 242 kts | 256° |
| 2026-04-23 23:32 | 25.23705 | 55.14104 | 9248 ft | 265 kts | 259° |
| 2026-04-23 23:32 | 25.23427 | 55.12044 | 9851 ft | 275 kts | 259° |
| 2026-04-23 23:33 | 25.23144 | 55.09906 | 10314 ft | 292 kts | 260° |
| 2026-04-23 23:33 | 25.22837 | 55.07602 | 10548 ft | 315 kts | 260° |
| 2026-04-23 23:33 | 25.22512 | 55.05160 | 11033 ft | 326 kts | 260° |
| 2026-04-23 23:33 | 25.22176 | 55.02665 | 11731 ft | 330 kts | 261° |
| 2026-04-23 23:34 | 25.21832 | 55.00144 | 12472 ft | 334 kts | 261° |
| 2026-04-23 23:34 | 25.21482 | 54.97593 | 13199 ft | 337 kts | 261° |
| 2026-04-23 23:34 | 25.21127 | 54.95020 | 13905 ft | 341 kts | 261° |
| 2026-04-23 23:34 | 25.20838 | 54.92410 | 14544 ft | 344 kts | 264° |
| 2026-04-23 23:35 | 25.20628 | 54.89760 | 15181 ft | 348 kts | 265° |
| 2026-04-23 23:35 | 25.20458 | 54.87080 | 15814 ft | 352 kts | 266° |
| 2026-04-23 23:35 | 25.20297 | 54.84368 | 16447 ft | 356 kts | 266° |
| 2026-04-23 23:35 | 25.20130 | 54.81631 | 17072 ft | 359 kts | 266° |
| 2026-04-23 23:36 | 25.19948 | 54.78862 | 17695 ft | 363 kts | 266° |
| 2026-04-23 23:36 | 25.19819 | 54.76064 | 18279 ft | 367 kts | 271° |
| 2026-04-23 23:36 | 25.19975 | 54.73239 | 18802 ft | 371 kts | 273° |
| 2026-04-23 23:36 | 25.20146 | 54.70382 | 19344 ft | 374 kts | 273° |
| 2026-04-23 23:37 | 25.20314 | 54.67501 | 19901 ft | 377 kts | 273° |
| 2026-04-23 23:37 | 25.20482 | 54.64597 | 20459 ft | 381 kts | 273° |
| 2026-04-23 23:37 | 25.20645 | 54.61708 | 21006 ft | 384 kts | 272° |
| 2026-04-23 23:37 | 25.20810 | 54.58757 | 21552 ft | 387 kts | 272° |
| 2026-04-23 23:38 | 25.20978 | 54.55784 | 22098 ft | 390 kts | 272° |
| 2026-04-23 23:38 | 25.21250 | 54.52791 | 22616 ft | 394 kts | 279° |
| 2026-04-23 23:38 | 25.21927 | 54.49842 | 23130 ft | 398 kts | 284° |
| 2026-04-23 23:38 | 25.22678 | 54.46887 | 23599 ft | 401 kts | 284° |
| 2026-04-23 23:39 | 25.23433 | 54.43913 | 24012 ft | 404 kts | 284° |
| 2026-04-23 23:39 | 25.24192 | 54.40917 | 24429 ft | 406 kts | 284° |
| 2026-04-23 23:39 | 25.24952 | 54.37903 | 24847 ft | 408 kts | 284° |
| 2026-04-23 23:39 | 25.25712 | 54.34871 | 25258 ft | 410 kts | 284° |
| 2026-04-23 23:40 | 25.26472 | 54.31824 | 25651 ft | 412 kts | 284° |
| 2026-04-23 23:40 | 25.27233 | 54.28767 | 25800 ft | 413 kts | 284° |
| 2026-04-23 23:40 | 25.27992 | 54.25708 | 25834 ft | 413 kts | 284° |
| 2026-04-23 23:40 | 25.28750 | 54.22652 | 25843 ft | 412 kts | 284° |
| 2026-04-23 23:41 | 25.29506 | 54.19599 | 25843 ft | 412 kts | 284° |
| 2026-04-23 23:41 | 25.30259 | 54.16545 | 25843 ft | 412 kts | 284° |
| 2026-04-23 23:41 | 25.31013 | 54.13492 | 25836 ft | 412 kts | 283° |
| 2026-04-23 23:41 | 25.31732 | 54.10428 | 25843 ft | 412 kts | 282° |
| 2026-04-23 23:42 | 25.32395 | 54.07354 | 25835 ft | 411 kts | 281° |
| 2026-04-23 23:42 | 25.33030 | 54.04272 | 25840 ft | 411 kts | 281° |
| 2026-04-23 23:42 | 25.33650 | 54.01225 | 25840 ft | 411 kts | 281° |
| 2026-04-23 23:42 | 25.34282 | 53.98141 | 25842 ft | 411 kts | 281° |
| 2026-04-23 23:43 | 25.34919 | 53.95065 | 25845 ft | 410 kts | 281° |
| 2026-04-23 23:43 | 25.35562 | 53.91994 | 25841 ft | 410 kts | 282° |
| 2026-04-23 23:43 | 25.36209 | 53.88921 | 25851 ft | 410 kts | 282° |
| 2026-04-23 23:43 | 25.36856 | 53.85852 | 25845 ft | 410 kts | 282° |
| 2026-04-23 23:44 | 25.37503 | 53.82783 | 25849 ft | 410 kts | 282° |
| 2026-04-23 23:44 | 25.38149 | 53.79713 | 25848 ft | 410 kts | 282° |
| 2026-04-23 23:44 | 25.38796 | 53.76644 | 25847 ft | 410 kts | 282° |
| 2026-04-23 23:44 | 25.39440 | 53.73575 | 25846 ft | 410 kts | 282° |
| 2026-04-23 23:45 | 25.40084 | 53.70507 | 25845 ft | 409 kts | 282° |
| 2026-04-23 23:45 | 25.40727 | 53.67440 | 25848 ft | 409 kts | 282° |
| 2026-04-23 23:45 | 25.41369 | 53.64373 | 25845 ft | 409 kts | 282° |
| 2026-04-23 23:45 | 25.42009 | 53.61306 | 25848 ft | 409 kts | 282° |
| 2026-04-23 23:46 | 25.42648 | 53.58239 | 25843 ft | 409 kts | 282° |
| 2026-04-23 23:46 | 25.43288 | 53.55173 | 25851 ft | 409 kts | 282° |
| 2026-04-23 23:46 | 25.43927 | 53.52107 | 25846 ft | 409 kts | 282° |
| 2026-04-23 23:46 | 25.44565 | 53.49042 | 25847 ft | 409 kts | 282° |
| 2026-04-23 23:47 | 25.45201 | 53.45973 | 25851 ft | 409 kts | 282° |
| 2026-04-23 23:47 | 25.45838 | 53.42905 | 25853 ft | 409 kts | 282° |
| 2026-04-23 23:47 | 25.46477 | 53.39840 | 25852 ft | 409 kts | 282° |
| 2026-04-23 23:47 | 25.47114 | 53.36773 | 25855 ft | 409 kts | 281° |
| 2026-04-23 23:48 | 25.47747 | 53.33710 | 25854 ft | 408 kts | 281° |
| 2026-04-23 23:48 | 25.48377 | 53.30646 | 25856 ft | 408 kts | 281° |
| 2026-04-23 23:48 | 25.49009 | 53.27584 | 25859 ft | 408 kts | 281° |
| 2026-04-23 23:48 | 25.49641 | 53.24521 | 25863 ft | 408 kts | 281° |
| 2026-04-23 23:49 | 25.50895 | 53.18440 | 25864 ft | 408 kts | 281° |
| 2026-04-23 23:49 | 25.51522 | 53.15378 | 25864 ft | 408 kts | 281° |
| 2026-04-23 23:49 | 25.52146 | 53.12313 | 25864 ft | 408 kts | 281° |
| 2026-04-23 23:50 | 25.52770 | 53.09251 | 25862 ft | 408 kts | 281° |
| 2026-04-23 23:50 | 25.53396 | 53.06189 | 25864 ft | 408 kts | 281° |
| 2026-04-23 23:50 | 25.54022 | 53.03125 | 25867 ft | 408 kts | 281° |
| 2026-04-23 23:50 | 25.54648 | 53.00064 | 25872 ft | 408 kts | 281° |
| 2026-04-23 23:51 | 25.55273 | 52.97002 | 25866 ft | 407 kts | 281° |
| 2026-04-23 23:51 | 25.55896 | 52.93944 | 25871 ft | 407 kts | 281° |
| 2026-04-23 23:51 | 25.56675 | 52.90929 | 25869 ft | 409 kts | 289° |
| 2026-04-23 23:51 | 25.57890 | 52.88111 | 25877 ft | 410 kts | 296° |
| 2026-04-23 23:52 | 25.59255 | 52.85344 | 25874 ft | 409 kts | 296° |
| 2026-04-23 23:52 | 25.60610 | 52.82579 | 25874 ft | 408 kts | 296° |
| 2026-04-23 23:52 | 25.61959 | 52.79813 | 25874 ft | 408 kts | 296° |
| 2026-04-23 23:52 | 25.63305 | 52.77045 | 25874 ft | 408 kts | 296° |
| 2026-04-23 23:53 | 25.64647 | 52.74279 | 25875 ft | 408 kts | 296° |
| 2026-04-23 23:53 | 25.65989 | 52.71513 | 25876 ft | 407 kts | 296° |
| 2026-04-23 23:53 | 25.67331 | 52.68749 | 25877 ft | 407 kts | 296° |
| 2026-04-23 23:53 | 25.68672 | 52.65983 | 25883 ft | 407 kts | 296° |
| 2026-04-23 23:54 | 25.70015 | 52.63217 | 25885 ft | 407 kts | 296° |
| 2026-04-23 23:54 | 25.71339 | 52.60491 | 25885 ft | 407 kts | 296° |
| 2026-04-23 23:54 | 25.72683 | 52.57726 | 25884 ft | 407 kts | 296° |
| 2026-04-23 23:54 | 25.74029 | 52.54961 | 25885 ft | 407 kts | 296° |
| 2026-04-23 23:55 | 25.75370 | 52.52195 | 25887 ft | 407 kts | 296° |
| 2026-04-23 23:55 | 25.76704 | 52.49428 | 25885 ft | 407 kts | 295° |
| 2026-04-23 23:55 | 25.78014 | 52.46650 | 25888 ft | 406 kts | 295° |
| 2026-04-23 23:55 | 25.79306 | 52.43863 | 25888 ft | 406 kts | 295° |
| 2026-04-23 23:56 | 25.80592 | 52.41073 | 25887 ft | 406 kts | 295° |
| 2026-04-23 23:56 | 25.81878 | 52.38280 | 25888 ft | 406 kts | 295° |
| 2026-04-23 23:56 | 25.83164 | 52.35492 | 25889 ft | 406 kts | 295° |
| 2026-04-23 23:56 | 25.84452 | 52.32704 | 25891 ft | 406 kts | 295° |
| 2026-04-23 23:57 | 25.85744 | 52.29915 | 25890 ft | 406 kts | 295° |
| 2026-04-23 23:57 | 25.87162 | 52.27203 | 25892 ft | 408 kts | 303° |
| 2026-04-23 23:57 | 25.88975 | 52.24768 | 25896 ft | 410 kts | 310° |
| 2026-04-23 23:57 | 25.90913 | 52.22443 | 25892 ft | 410 kts | 309° |
| 2026-04-23 23:58 | 25.92848 | 52.20112 | 25893 ft | 410 kts | 309° |
| 2026-04-23 23:58 | 25.94779 | 52.17780 | 25895 ft | 410 kts | 309° |
| 2026-04-23 23:58 | 25.96706 | 52.15443 | 25896 ft | 410 kts | 309° |
| 2026-04-23 23:58 | 25.98633 | 52.13104 | 25896 ft | 410 kts | 309° |
| 2026-04-23 23:59 | 26.00562 | 52.10768 | 25895 ft | 410 kts | 309° |
| 2026-04-23 23:59 | 26.02491 | 52.08435 | 25898 ft | 410 kts | 309° |
| 2026-04-23 23:59 | 26.04381 | 52.06149 | 25660 ft | 404 kts | 309° |
| 2026-04-23 23:59 | 26.06267 | 52.03870 | 25229 ft | 397 kts | 309° |
| 2026-04-24 00:00 | 26.08124 | 52.01628 | 24784 ft | 392 kts | 309° |
| 2026-04-24 00:00 | 26.09961 | 51.99406 | 24359 ft | 389 kts | 309° |
| 2026-04-24 00:00 | 26.11784 | 51.97197 | 23938 ft | 386 kts | 309° |
| 2026-04-24 00:00 | 26.13597 | 51.95000 | 23515 ft | 384 kts | 309° |
| 2026-04-24 00:01 | 26.15401 | 51.92813 | 23017 ft | 382 kts | 309° |
| 2026-04-24 00:01 | 26.17195 | 51.90638 | 22529 ft | 380 kts | 309° |
| 2026-04-24 00:01 | 26.18975 | 51.88474 | 22057 ft | 378 kts | 309° |
| 2026-04-24 00:01 | 26.20744 | 51.86320 | 21607 ft | 376 kts | 309° |
| 2026-04-24 00:02 | 26.22505 | 51.84181 | 21159 ft | 374 kts | 309° |
| 2026-04-24 00:02 | 26.24227 | 51.82031 | 20733 ft | 370 kts | 305° |
| 2026-04-24 00:02 | 26.25679 | 51.79692 | 20300 ft | 365 kts | 296° |
| 2026-04-24 00:02 | 26.26835 | 51.77196 | 19878 ft | 361 kts | 293° |
| 2026-04-24 00:03 | 26.27945 | 51.74700 | 19463 ft | 359 kts | 293° |
| 2026-04-24 00:03 | 26.29052 | 51.72214 | 19047 ft | 357 kts | 292° |
| 2026-04-24 00:03 | 26.30153 | 51.69744 | 18645 ft | 355 kts | 292° |
| 2026-04-24 00:03 | 26.31247 | 51.67284 | 18235 ft | 353 kts | 292° |
| 2026-04-24 00:04 | 26.32335 | 51.64839 | 17768 ft | 352 kts | 292° |
| 2026-04-24 00:04 | 26.33421 | 51.62404 | 17305 ft | 350 kts | 292° |
| 2026-04-24 00:04 | 26.34504 | 51.59980 | 16848 ft | 348 kts | 292° |
| 2026-04-24 00:04 | 26.35581 | 51.57566 | 16446 ft | 347 kts | 292° |
| 2026-04-24 00:05 | 26.36651 | 51.55160 | 16057 ft | 346 kts | 292° |
| 2026-04-24 00:05 | 26.37704 | 51.52760 | 15672 ft | 343 kts | 290° |
| 2026-04-24 00:05 | 26.38273 | 51.51127 | 15419 ft | 340 kts | 286° |
| 2026-04-24 00:05 | 26.39319 | 51.47845 | 14911 ft | 338 kts | 286° |
| 2026-04-24 00:06 | 26.40105 | 51.45381 | 14548 ft | 337 kts | 286° |
| 2026-04-24 00:06 | 26.40890 | 51.42924 | 14171 ft | 336 kts | 286° |
| 2026-04-24 00:06 | 26.41672 | 51.40476 | 13835 ft | 335 kts | 285° |
| 2026-04-24 00:06 | 26.42451 | 51.38032 | 13452 ft | 334 kts | 285° |
| 2026-04-24 00:07 | 26.42977 | 51.36386 | 13190 ft | 333 kts | 286° |
| 2026-04-24 00:07 | 26.43752 | 51.33959 | 12812 ft | 332 kts | 286° |
| 2026-04-24 00:07 | 26.44526 | 51.31539 | 12436 ft | 331 kts | 286° |
| 2026-04-24 00:07 | 26.45120 | 51.29077 | 12066 ft | 326 kts | 276° |
| 2026-04-24 00:08 | 26.45103 | 51.26594 | 11705 ft | 318 kts | 255° |
| 2026-04-24 00:08 | 26.44267 | 51.24341 | 11344 ft | 314 kts | 237° |
| 2026-04-24 00:08 | 26.43047 | 51.22327 | 10956 ft | 313 kts | 235° |
| 2026-04-24 00:08 | 26.41831 | 51.20323 | 10531 ft | 308 kts | 235° |
| 2026-04-24 00:09 | 26.40675 | 51.18418 | 10150 ft | 292 kts | 235° |
| 2026-04-24 00:09 | 26.39549 | 51.16564 | 9799 ft | 280 kts | 235° |
| 2026-04-24 00:09 | 26.38472 | 51.14795 | 9428 ft | 279 kts | 235° |
| 2026-04-24 00:09 | 26.37383 | 51.13019 | 9050 ft | 276 kts | 235° |
| 2026-04-24 00:10 | 26.36298 | 51.11259 | 8672 ft | 274 kts | 235° |
| 2026-04-24 00:10 | 26.35214 | 51.09517 | 8302 ft | 272 kts | 235° |
| 2026-04-24 00:10 | 26.34129 | 51.07800 | 7937 ft | 270 kts | 235° |
| 2026-04-24 00:10 | 26.33039 | 51.06097 | 7573 ft | 270 kts | 236° |
| 2026-04-24 00:11 | 26.31939 | 51.04400 | 7188 ft | 270 kts | 235° |
| 2026-04-24 00:11 | 26.30829 | 51.02711 | 6788 ft | 271 kts | 234° |
| 2026-04-24 00:11 | 26.29711 | 51.01022 | 6391 ft | 271 kts | 235° |
| 2026-04-24 00:11 | 26.28575 | 50.99353 | 5973 ft | 270 kts | 234° |
| 2026-04-24 00:12 | 26.27443 | 50.97685 | 5555 ft | 269 kts | 235° |
| 2026-04-24 00:12 | 26.26374 | 50.95986 | 5143 ft | 266 kts | 242° |
| 2026-04-24 00:12 | 26.25504 | 50.94179 | 4731 ft | 265 kts | 246° |
| 2026-04-24 00:12 | 26.24693 | 50.92345 | 4317 ft | 263 kts | 246° |
| 2026-04-24 00:13 | 26.23890 | 50.90529 | 3899 ft | 260 kts | 246° |
| 2026-04-24 00:13 | 26.23096 | 50.88720 | 3484 ft | 258 kts | 246° |
| 2026-04-24 00:13 | 26.22304 | 50.86974 | 3077 ft | 247 kts | 246° |
| 2026-04-24 00:13 | 26.21520 | 50.85320 | 2662 ft | 236 kts | 247° |
| 2026-04-24 00:14 | 26.20757 | 50.83749 | 2370 ft | 224 kts | 246° |
| 2026-04-24 00:14 | 26.20020 | 50.82266 | 2118 ft | 215 kts | 246° |
| 2026-04-24 00:14 | 26.19311 | 50.80865 | 1998 ft | 201 kts | 248° |
| 2026-04-24 00:14 | 26.18893 | 50.79475 | 1981 ft | 187 kts | 268° |
| 2026-04-24 00:15 | 26.18914 | 50.78061 | 1987 ft | 180 kts | 285° |
| 2026-04-24 00:15 | 26.19337 | 50.76771 | 1984 ft | 176 kts | 303° |
| 2026-04-24 00:15 | 26.19996 | 50.75625 | 1985 ft | 175 kts | 305° |
| 2026-04-24 00:15 | 26.20652 | 50.74490 | 1920 ft | 170 kts | 305° |
| 2026-04-24 00:16 | 26.21279 | 50.73407 | 1726 ft | 162 kts | 305° |
| 2026-04-24 00:16 | 26.21864 | 50.72395 | 1523 ft | 149 kts | 305° |
| 2026-04-24 00:16 | 26.22406 | 50.71457 | 1328 ft | 139 kts | 305° |
| 2026-04-24 00:16 | 26.22917 | 50.70574 | 1177 ft | 133 kts | 304° |
| 2026-04-24 00:17 | 26.23413 | 50.69717 | 1000 ft | 130 kts | 304° |
| 2026-04-24 00:17 | 26.23902 | 50.68872 | 849 ft | 129 kts | 305° |
| 2026-04-24 00:17 | 26.24387 | 50.68033 | 699 ft | 129 kts | 306° |
| 2026-04-24 00:17 | 26.24881 | 50.67179 | 544 ft | 130 kts | 308° |
| 2026-04-24 00:18 | 26.25370 | 50.66336 | 323 ft | 132 kts | 307° |
| 2026-04-24 00:18 | 26.25862 | 50.65496 | 211 ft | 132 kts | 305° |
| 2026-04-24 00:18 | 26.26346 | 50.64639 | 56 ft | 130 kts | 306° |
| 2026-04-24 00:18 | 26.26795 | 50.63883 | 16 ft | 93 kts | 301° |
| 2026-04-24 00:19 | 26.27048 | 50.63421 | 16 ft | 49 kts | 301° |
| 2026-04-24 00:19 | 26.27192 | 50.63173 | 18 ft | 28 kts | 303° |
| 2026-04-24 00:19 | 26.27249 | 50.63002 | 16 ft | 21 kts | 274° |
| 2026-04-24 00:19 | 26.27256 | 50.62886 | 18 ft | 8 kts | 271° |
| 2026-04-24 00:20 | 26.27241 | 50.62845 | 20 ft | 5 kts | 223° |
| 2026-04-24 00:20 | 26.27220 | 50.62833 | 19 ft | 2 kts | 196° |
| 2026-04-24 00:20 | 26.27187 | 50.62846 | 20 ft | 6 kts | 143° |
| 2026-04-24 00:20 | 26.27167 | 50.62878 | 23 ft | 4 kts | 123° |
| 2026-04-24 00:21 | 26.27149 | 50.62904 | 23 ft | 9 kts | 133° |
| 2026-04-24 00:21 | 26.27108 | 50.62909 | 23 ft | 3 kts | 206° |
| 2026-04-24 00:21 | 26.27094 | 50.62900 | 23 ft | 2 kts | 211° |
| 2026-04-24 00:21 | 26.27060 | 50.62883 | 22 ft | 10 kts | 190° |
| 2026-04-24 00:22 | 26.27010 | 50.62922 | 24 ft | 9 kts | 123° |
| 2026-04-24 00:22 | 26.26979 | 50.62979 | 22 ft | 8 kts | 122° |
| 2026-04-24 00:22 | 26.26948 | 50.63034 | 22 ft | 9 kts | 122° |
| 2026-04-24 00:22 | 26.26915 | 50.63093 | 21 ft | 9 kts | 122° |
| 2026-04-24 00:23 | 26.26883 | 50.63148 | 21 ft | 7 kts | 123° |
| 2026-04-24 00:23 | 26.26862 | 50.63182 | 22 ft | 2 kts | 127° |
| 2026-04-24 00:23 | 26.26849 | 50.63185 | 21 ft | 2 kts | 184° |
| 2026-04-24 00:23 | 26.26835 | 50.63178 | 21 ft | 5 kts | 206° |
| 2026-04-24 00:24 | 26.26806 | 50.63157 | 22 ft | 5 kts | 214° |
| 2026-04-24 00:24 | 26.26784 | 50.63141 | 21 ft | 2 kts | 212° |
| 2026-04-24 00:24 | 26.26773 | 50.63134 | 22 ft | 2 kts | 212° |
| 2026-04-24 00:24 | 26.26770 | 50.63132 | 21 ft | 0 kts | 212° |
| 2026-04-24 00:25 | 26.26767 | 50.63129 | 23 ft | 0 kts | 212° |
| 2026-04-24 00:25 | 26.26765 | 50.63128 | 22 ft | 0 kts | 212° |